LFKC Airport Information

Runway Information
Runway 18 Length 7579 ft width 131 ft
Elevation 63 ft Threshold 0 ft Heading 179
Runway 36 Length 7579 ft Width 131 ft
Elevation 198 ft Threshold 656 ft Heading 359
Airport Frequencies
Type ATIS Name CALVI ATIS Frequency 131.175 MHZ
Type GND Name CALVI GND Frequency 121.7 MHZ
Type TWR Name CALVI TWR Frequency 120.8 MHZ
Airport Navaids
Type NDB Name Calvi Frequency 375 KHZ
Airport Weather Information & NOTAM
ADDS - METARS form results

(2155 UTC 23 February 2019)
Data provider http://aviationweather.gov/metar/data/
 
METAR text: LFKC 232130Z AUTO 05027G44KT 020V080 CAVOK 14/M20 Q1026
Conditions at: LFKC (CALVI/ST. CATHER, FR) observed 2130 UTC 23 February 2019
Temperature: 14.0°C (57°F)
Dewpoint: -20.0°C (-4°F) [RH =  8%]
Pressure (altimeter): 30.30 inches Hg (1026.0 mb)
Winds: from the NE (50 degrees) at 31 MPH (27 knots; 13.9 m/s)
gusting to 51 MPH (44 knots; 22.6 m/s)
Visibility: 6 or more miles (10+ km)
Ceiling: ceiling and visibility are OK
Clouds: unknown
Weather: no significant weather observed at this time

METAR text: LFKC 232100Z AUTO 05019G40KT 010V080 CAVOK 13/M20 Q1026
Conditions at: LFKC (CALVI/ST. CATHER, FR) observed 2100 UTC 23 February 2019
Temperature: 13.0°C (55°F)
Dewpoint: -20.0°C (-4°F) [RH =  8%]
Pressure (altimeter): 30.30 inches Hg (1026.0 mb)
Winds: from the NE (50 degrees) at 22 MPH (19 knots; 9.8 m/s)
gusting to 46 MPH (40 knots; 20.6 m/s)
Visibility: 6 or more miles (10+ km)
Ceiling: ceiling and visibility are OK
Clouds: unknown
Weather: no significant weather observed at this time

Forecast for: LFKC (CALVI/ST. CATHER, FR)
Text: TAF LFKC 231400Z 2315/2415 04015KT CAVOK TX17/2413Z TN05/2404Z
Forecast period: 1500 UTC 23 February 2019 to 1500 UTC 24 February 2019
Forecast type: FROM: standard forecast or significant change
Winds: from the NE (40 degrees) at 17 MPH (15 knots; 7.7 m/s)
Visibility: 6 or more miles 10+ km)
Ceiling: unknown
Clouds: missing
Weather: no significant weather forecast for this period
Text: PROB40
Forecast period: 1500 UTC 23 February 2019 to 1500 UTC 24 February 2019
Forecast type: TEMPORARY: The following changes expected for less than half the time period
Winds: from the NE (40 degrees) at 23 MPH (20 knots; 10.3 m/s)
gusting to 46 MPH (40 knots; 20.6 m/s)
Visibility: missing
Ceiling: unknown
Clouds: missing
Weather: no significant weather forecast for this period